createdAt,value
2018-09-19T00:00:48.255Z,95826.97
2018-09-19T00:03:16.159Z,95826.45
2018-09-19T00:05:44.101Z,95821.99
2018-09-19T00:08:12.062Z,95826.61
2018-09-19T00:10:40.020Z,95823.53
2018-09-19T00:13:08.034Z,95824.23
2018-09-19T00:15:35.942Z,95824.47
2018-09-19T00:18:03.889Z,95819.70
2018-09-19T00:20:31.846Z,95813.75
2018-09-19T00:22:59.934Z,95818.32
2018-09-19T00:25:27.884Z,95820.37
2018-09-19T00:27:55.768Z,95829.44
2018-09-19T00:30:23.743Z,95818.48
2018-09-19T00:32:51.640Z,95821.42
2018-09-19T00:35:19.584Z,95822.34
2018-09-19T00:37:48.164Z,95816.31
2018-09-19T00:40:16.195Z,95818.97
2018-09-19T00:42:44.388Z,95821.38
2018-09-19T00:45:12.612Z,95815.24
2018-09-19T00:47:40.559Z,95818.42
2018-09-19T00:50:08.695Z,95820.42
2018-09-19T00:52:36.575Z,95824.37
2018-09-19T00:55:04.485Z,95827.19
2018-09-19T00:57:32.432Z,95825.70
2018-09-19T01:00:00.414Z,95830.14
2018-09-19T01:02:28.458Z,95817.21
2018-09-19T01:04:56.413Z,95817.53
2018-09-19T01:07:24.435Z,95814.55
2018-09-19T01:09:52.604Z,95823.77
2018-09-19T01:12:20.647Z,95810.63
2018-09-19T01:14:48.713Z,95817.16
2018-09-19T01:17:16.687Z,95813.08
2018-09-19T01:19:44.582Z,95817.35
2018-09-19T01:22:12.602Z,95802.49
2018-09-19T01:24:40.518Z,95810.66
2018-09-19T01:27:08.558Z,95810.80
2018-09-19T01:29:36.554Z,95808.67
2018-09-19T01:32:04.540Z,95800.82
2018-09-19T01:34:32.542Z,95806.12
2018-09-19T01:37:00.614Z,95798.73
2018-09-19T01:39:28.577Z,95806.14
2018-09-19T01:41:56.568Z,95804.00
2018-09-19T01:44:24.496Z,95799.78
2018-09-19T01:46:52.412Z,95796.02
2018-09-19T01:49:20.399Z,95799.91
2018-09-19T01:51:52.734Z,95795.55
2018-09-19T01:54:20.780Z,95791.73
2018-09-19T01:56:48.694Z,95788.99
2018-09-19T01:59:16.790Z,95781.77
2018-09-19T02:01:44.847Z,95786.59
2018-09-19T02:04:12.883Z,95788.59
2018-09-19T02:06:40.777Z,95794.50
2018-09-19T02:09:11.342Z,95789.30
2018-09-19T02:11:40.550Z,95797.11
2018-09-19T02:14:09.127Z,95790.89
2018-09-19T02:16:37.417Z,95803.30
2018-09-19T02:19:05.553Z,95796.22
2018-09-19T02:21:33.495Z,95802.27
2018-09-19T02:24:01.464Z,95802.90
2018-09-19T02:26:29.496Z,95810.30
2018-09-19T02:28:57.442Z,95804.18
2018-09-19T02:31:25.443Z,95804.33
2018-09-19T02:33:53.708Z,95801.92
2018-09-19T02:36:25.660Z,95794.31
2018-09-19T02:38:55.141Z,95802.42
2018-09-19T02:41:23.106Z,95799.71
2018-09-19T02:43:51.553Z,95804.13
2018-09-19T02:46:19.525Z,95797.33
2018-09-19T02:48:48.049Z,95802.13
2018-09-19T02:51:16.779Z,95804.09
2018-09-19T02:53:45.770Z,95805.14
2018-09-19T02:56:13.776Z,95796.09
2018-09-19T02:58:41.797Z,95795.66
2018-09-19T03:01:10.704Z,95804.42
2018-09-19T03:03:39.505Z,95808.61
2018-09-19T03:06:07.440Z,95804.41
2018-09-19T03:08:35.566Z,95801.67
2018-09-19T03:11:03.586Z,95808.78
2018-09-19T03:13:31.509Z,95800.63
2018-09-19T03:15:59.563Z,95799.31
2018-09-19T03:18:27.660Z,95801.13
2018-09-19T03:20:55.641Z,95812.83
2018-09-19T03:23:23.951Z,95799.30
2018-09-19T03:25:51.948Z,95811.89
2018-09-19T03:28:19.874Z,95805.09
2018-09-19T03:30:48.249Z,95805.09
2018-09-19T03:33:16.265Z,95796.08
2018-09-19T03:35:44.256Z,95789.92
2018-09-19T03:38:12.192Z,95794.50
2018-09-19T03:40:40.131Z,95800.94
2018-09-19T03:43:08.097Z,95792.82
2018-09-19T03:45:36.021Z,95803.86
2018-09-19T03:48:04.046Z,95798.70
2018-09-19T03:50:31.925Z,95802.86
2018-09-19T03:52:59.924Z,95803.74
2018-09-19T03:55:27.861Z,95772.82
2018-09-19T03:57:55.850Z,95802.56
2018-09-19T04:00:23.985Z,95797.98
2018-09-19T04:02:51.905Z,95801.77
2018-09-19T04:05:19.872Z,95797.87
2018-09-19T04:07:47.866Z,95799.20
2018-09-19T04:10:15.857Z,95804.16
2018-09-19T04:12:43.921Z,95802.50
2018-09-19T04:15:11.958Z,95803.09
2018-09-19T04:17:40.024Z,95803.20
2018-09-19T04:20:08.106Z,95798.94
2018-09-19T04:22:36.997Z,95795.27
2018-09-19T04:25:05.200Z,95797.80
2018-09-19T04:27:33.324Z,95797.39
2018-09-19T04:30:01.657Z,95802.20
2018-09-19T04:32:29.787Z,95807.32
2018-09-19T04:34:57.812Z,95810.35
2018-09-19T04:37:25.903Z,95810.13
2018-09-19T04:39:54.401Z,95821.53
2018-09-19T04:42:22.358Z,95817.48
2018-09-19T04:44:51.060Z,95817.02
2018-09-19T04:47:19.005Z,95813.09
2018-09-19T04:49:47.104Z,95817.95
2018-09-19T04:52:15.178Z,95819.36
2018-09-19T04:54:46.158Z,95817.68
2018-09-19T04:57:14.206Z,95821.76
2018-09-19T04:59:42.108Z,95823.66
2018-09-19T05:02:10.274Z,95826.55
2018-09-19T05:04:38.242Z,95822.57
2018-09-19T05:07:06.348Z,95831.53
2018-09-19T05:09:34.291Z,95825.20
2018-09-19T05:12:02.298Z,95834.78
2018-09-19T05:14:31.165Z,95833.70
2018-09-19T05:16:59.099Z,95831.98
2018-09-19T05:19:27.121Z,95831.72
2018-09-19T05:21:55.188Z,95828.84
2018-09-19T05:24:23.522Z,95830.94
2018-09-19T05:26:51.749Z,95821.71
2018-09-19T05:29:19.990Z,95820.83
2018-09-19T05:31:47.978Z,95822.17
2018-09-19T05:34:16.143Z,95822.93
2018-09-19T05:36:44.067Z,95824.45
2018-09-19T05:39:11.974Z,95827.33
2018-09-19T05:41:39.950Z,95825.97
2018-09-19T05:44:07.945Z,95832.47
2018-09-19T05:46:36.016Z,95831.09
2018-09-19T05:49:03.954Z,95836.03
2018-09-19T05:51:31.926Z,95827.89
2018-09-19T05:53:59.810Z,95839.89
2018-09-19T05:56:27.715Z,95832.08
2018-09-19T05:58:55.692Z,95835.89
2018-09-19T06:01:23.613Z,95839.78
2018-09-19T06:03:51.586Z,95838.54
2018-09-19T06:06:20.461Z,95843.09
2018-09-19T06:08:48.639Z,95846.56
2018-09-19T06:11:16.666Z,95848.38
2018-09-19T06:13:44.762Z,95846.43
2018-09-19T06:16:12.734Z,95852.61
2018-09-19T06:18:40.698Z,95847.80
2018-09-19T06:21:08.643Z,95847.07
2018-09-19T06:23:36.667Z,95843.05
2018-09-19T06:26:04.673Z,95845.32
2018-09-19T06:28:32.805Z,95843.19
2018-09-19T06:31:01.281Z,95845.84
2018-09-19T06:33:29.288Z,95843.30
2018-09-19T06:35:57.357Z,95845.61
2018-09-19T06:38:25.479Z,95849.50
2018-09-19T06:40:54.691Z,95851.30
2018-09-19T06:43:22.663Z,95850.92
2018-09-19T06:45:51.054Z,95846.93
2018-09-19T06:48:19.003Z,95851.41
2018-09-19T06:50:54.385Z,95840.31
2018-09-19T06:53:22.624Z,95847.21
2018-09-19T06:55:50.661Z,95838.63
2018-09-19T06:58:18.736Z,95845.19
2018-09-19T07:00:46.801Z,95840.25
2018-09-19T07:03:14.952Z,95845.31
2018-09-19T07:05:43.112Z,95850.45
2018-09-19T07:08:11.277Z,95846.14
2018-09-19T07:10:40.011Z,95844.99
2018-09-19T07:13:07.965Z,95851.27
2018-09-19T07:15:36.107Z,95855.03
2018-09-19T07:18:04.208Z,95853.13
2018-09-19T07:20:32.280Z,95850.25
2018-09-19T07:23:00.275Z,95850.19
2018-09-19T07:25:28.219Z,95857.78
2018-09-19T07:27:56.145Z,95862.50
2018-09-19T07:30:24.156Z,95858.38
2018-09-19T07:32:52.194Z,95858.90
2018-09-19T07:35:23.243Z,95857.52
2018-09-19T07:37:51.320Z,95858.38
2018-09-19T07:40:19.493Z,95859.32
2018-09-19T07:42:47.474Z,95852.51
2018-09-19T07:45:15.496Z,95852.30
2018-09-19T07:47:43.564Z,95853.80
2018-09-19T07:50:11.600Z,95851.66
2018-09-19T07:52:39.573Z,95861.64
2018-09-19T07:55:07.653Z,95770.41
2018-09-19T07:57:39.292Z,95850.56
2018-09-19T08:00:08.251Z,95850.98
2018-09-19T08:02:36.147Z,95846.34
2018-09-19T08:05:04.273Z,95847.61
2018-09-19T08:07:32.747Z,95846.32
2018-09-19T08:10:01.616Z,95848.34
2018-09-19T08:12:29.626Z,95848.34
2018-09-19T08:14:58.103Z,95850.53
2018-09-19T08:17:26.752Z,95849.87
2018-09-19T08:19:58.225Z,95851.02
2018-09-19T08:22:26.532Z,95850.16
2018-09-19T08:24:55.521Z,95843.59
2018-09-19T08:27:23.620Z,95846.52
2018-09-19T08:29:51.897Z,95852.84
2018-09-19T08:32:19.921Z,95838.91
2018-09-19T08:34:47.901Z,95839.94
2018-09-19T08:37:16.094Z,95835.62
2018-09-19T08:39:44.093Z,95829.87
2018-09-19T08:42:12.217Z,95823.58
2018-09-19T08:44:40.432Z,95832.42
2018-09-19T08:47:08.361Z,95828.05
2018-09-19T08:49:36.418Z,95823.80
2018-09-19T08:52:04.676Z,95829.25
2018-09-19T08:54:32.735Z,95822.91
2018-09-19T08:57:01.419Z,95822.02
2018-09-19T08:59:29.900Z,95821.05
2018-09-19T09:01:58.083Z,95811.52
2018-09-19T09:04:26.646Z,95809.02
2018-09-19T09:06:55.047Z,95810.63
2018-09-19T09:09:23.121Z,95808.71
2018-09-19T09:11:51.065Z,95809.37
2018-09-19T09:14:19.824Z,95805.03
2018-09-19T09:16:48.022Z,95798.81
2018-09-19T09:19:16.079Z,95802.02
2018-09-19T09:21:44.225Z,95799.72
2018-09-19T09:24:13.008Z,95802.22
2018-09-19T09:26:41.338Z,95796.28
2018-09-19T09:29:09.328Z,95794.53
2018-09-19T09:31:37.313Z,95792.59
2018-09-19T09:34:05.482Z,95791.16
2018-09-19T09:36:35.471Z,95789.62
2018-09-19T09:39:04.434Z,95790.58
2018-09-19T09:41:32.411Z,95790.73
2018-09-19T09:44:01.412Z,95781.37
2018-09-19T09:46:29.776Z,95774.56
2018-09-19T09:48:58.154Z,95779.06
2018-09-19T09:51:26.436Z,95781.20
2018-09-19T09:53:56.449Z,95778.19
2018-09-19T09:56:24.495Z,95760.94
2018-09-19T09:58:52.656Z,95773.16
2018-09-19T10:01:20.783Z,95766.06
2018-09-19T10:03:48.916Z,95764.96
2018-09-19T10:06:16.963Z,95759.11
2018-09-19T10:08:45.162Z,95758.55
2018-09-19T10:11:13.173Z,95755.97
2018-09-19T10:13:41.205Z,95752.83
2018-09-19T10:16:09.810Z,95759.11
2018-09-19T10:18:37.906Z,95755.28
2018-09-19T10:21:06.481Z,95746.86
2018-09-19T10:23:34.440Z,95745.84
2018-09-19T10:26:02.562Z,95747.91
2018-09-19T10:28:30.550Z,95743.02
2018-09-19T10:30:58.504Z,95744.73
2018-09-19T10:33:26.448Z,95744.69
2018-09-19T10:35:54.460Z,95745.50
2018-09-19T10:38:22.408Z,95744.81
2018-09-19T10:40:50.412Z,95739.08
2018-09-19T10:43:18.352Z,95727.97
2018-09-19T10:45:46.399Z,95730.70
2018-09-19T10:48:14.437Z,95722.76
2018-09-19T10:50:43.401Z,95726.20
2018-09-19T10:53:11.423Z,95723.44
2018-09-19T10:55:39.345Z,95715.55
2018-09-19T10:58:08.134Z,95715.66
2018-09-19T11:00:36.177Z,95715.46
2018-09-19T11:03:04.274Z,95707.53
2018-09-19T11:05:32.853Z,95706.39
2018-09-19T11:08:00.973Z,95709.84
2018-09-19T11:10:28.992Z,95696.61
2018-09-19T11:12:56.966Z,95692.42
2018-09-19T11:15:25.107Z,95694.69
2018-09-19T11:17:53.136Z,95691.52
2018-09-19T11:20:21.088Z,95688.11
2018-09-19T11:22:48.970Z,95681.98
2018-09-19T11:25:17.062Z,95688.30
2018-09-19T11:27:45.073Z,95673.94
2018-09-19T11:30:13.050Z,95678.72
2018-09-19T11:32:41.093Z,95683.50
2018-09-19T11:35:09.093Z,95675.51
2018-09-19T11:37:36.993Z,95678.13
2018-09-19T11:40:05.090Z,95672.58
2018-09-19T11:42:33.038Z,95676.18
2018-09-19T11:45:02.204Z,95675.23
2018-09-19T11:47:30.177Z,95670.14
2018-09-19T11:49:58.350Z,95666.82
2018-09-19T11:52:26.463Z,95672.34
2018-09-19T11:54:54.756Z,95661.87
2018-09-19T11:57:23.403Z,95653.52
2018-09-19T11:59:55.270Z,95659.47
2018-09-19T12:02:23.356Z,95653.50
2018-09-19T12:04:51.689Z,95648.47
2018-09-19T12:07:20.711Z,95642.80
2018-09-19T12:09:48.663Z,95653.05
2018-09-19T12:12:16.550Z,95644.52
2018-09-19T12:14:44.490Z,95645.44
2018-09-19T12:17:12.494Z,95639.80
2018-09-19T12:19:40.401Z,95640.26
2018-09-19T12:22:08.539Z,95630.36
2018-09-19T12:24:36.612Z,95629.70
2018-09-19T12:27:04.545Z,95623.10
2018-09-19T12:29:36.597Z,95621.47
2018-09-19T12:32:05.238Z,95619.05
2018-09-19T12:34:33.337Z,95617.64
2018-09-19T12:37:01.467Z,95616.27
2018-09-19T12:39:29.424Z,95601.53
2018-09-19T12:41:57.483Z,95606.73
2018-09-19T12:44:25.491Z,95600.36
2018-09-19T12:46:53.483Z,95602.02
2018-09-19T12:49:21.508Z,95612.98
2018-09-19T12:51:49.634Z,95604.89
2018-09-19T12:54:17.590Z,95607.84
2018-09-19T12:56:48.025Z,95602.75
2018-09-19T12:59:16.200Z,95604.43
2018-09-19T13:01:44.992Z,95611.12
2018-09-19T13:04:12.975Z,95606.13
2018-09-19T13:06:41.014Z,95594.95
2018-09-19T13:09:10.889Z,95595.56
2018-09-19T13:11:39.071Z,95594.81
2018-09-19T13:14:07.367Z,95589.44
2018-09-19T13:16:35.436Z,95586.10
2018-09-19T13:19:03.399Z,95585.76
2018-09-19T13:21:31.373Z,95585.14
2018-09-19T13:23:59.303Z,95581.84
2018-09-19T13:26:27.332Z,95580.84
2018-09-19T13:28:55.682Z,95578.98
2018-09-19T13:31:23.664Z,95576.41
2018-09-19T13:33:51.701Z,95570.09
2018-09-19T13:36:20.469Z,95563.70
2018-09-19T13:38:48.568Z,95577.78
2018-09-19T13:41:16.477Z,95562.64
2018-09-19T13:43:44.749Z,95570.74
2018-09-19T13:46:12.891Z,95572.19
2018-09-19T13:48:42.777Z,95566.74
2018-09-19T13:51:17.462Z,95565.58
2018-09-19T13:53:45.465Z,95569.70
2018-09-19T13:56:13.514Z,95560.16
2018-09-19T13:58:41.545Z,95563.66
2018-09-19T14:01:12.960Z,95568.39
2018-09-19T14:03:44.880Z,95562.34
2018-09-19T14:06:14.023Z,95557.09
2018-09-19T14:08:42.706Z,95564.56
2018-09-19T14:11:11.411Z,95554.98
2018-09-19T14:13:41.927Z,95552.22
2018-09-19T14:16:09.858Z,95557.63
2018-09-19T14:18:37.881Z,95560.20
2018-09-19T14:21:05.913Z,95559.56
2018-09-19T14:23:33.945Z,95563.17
2018-09-19T14:26:02.560Z,95562.55
2018-09-19T14:28:30.562Z,95562.77
2018-09-19T14:30:58.478Z,95552.79
2018-09-19T14:33:26.562Z,95558.25
2018-09-19T14:35:54.671Z,95557.25
2018-09-19T14:38:22.772Z,95556.78
2018-09-19T14:40:51.031Z,95552.84
2018-09-19T14:43:19.173Z,95550.15
2018-09-19T14:45:47.267Z,95549.61
2018-09-19T14:48:15.430Z,95541.87
2018-09-19T14:50:43.622Z,95554.73
2018-09-19T14:53:11.706Z,95556.02
2018-09-19T14:55:39.759Z,95547.06
2018-09-19T14:58:07.861Z,95553.06
2018-09-19T15:00:36.098Z,95548.38
2018-09-19T15:03:04.366Z,95555.80
2018-09-19T15:05:32.559Z,95548.88
2018-09-19T15:08:00.589Z,95546.84
2018-09-19T15:10:29.661Z,95553.11
2018-09-19T15:12:57.607Z,95541.50
2018-09-19T15:15:25.587Z,95553.01
2018-09-19T15:17:54.190Z,95561.92
2018-09-19T15:20:22.177Z,95556.69
2018-09-19T15:22:50.171Z,95559.05
2018-09-19T15:25:18.193Z,95564.80
2018-09-19T15:27:47.216Z,95559.89
2018-09-19T15:30:15.475Z,95565.64
2018-09-19T15:32:43.521Z,95568.19
2018-09-19T15:35:11.545Z,95561.69
2018-09-19T15:37:39.679Z,95564.70
2018-09-19T15:40:07.566Z,95565.97
2018-09-19T15:42:35.844Z,95572.69
2018-09-19T15:45:04.970Z,95562.57
2018-09-19T15:47:33.066Z,95562.77
2018-09-19T15:50:01.814Z,95574.08
2018-09-19T15:52:29.870Z,95570.86
2018-09-19T15:54:59.299Z,95572.80
2018-09-19T15:57:27.514Z,95571.03
2018-09-19T15:59:57.912Z,95576.11
2018-09-19T16:02:26.042Z,95576.77
2018-09-19T16:04:54.677Z,95572.47
2018-09-19T16:07:22.771Z,95576.53
2018-09-19T16:09:50.952Z,95574.09
2018-09-19T16:12:20.025Z,95580.72
2018-09-19T16:14:47.978Z,95582.05
2018-09-19T16:17:15.989Z,95583.74
2018-09-19T16:19:44.125Z,95587.42
2018-09-19T16:22:12.159Z,95587.86
2018-09-19T16:24:40.329Z,95594.26
2018-09-19T16:27:08.879Z,95601.63
2018-09-19T16:29:36.876Z,95604.59
2018-09-19T16:32:04.958Z,95605.82
2018-09-19T16:34:33.446Z,95609.67
2018-09-19T16:37:02.300Z,95608.87
2018-09-19T16:39:30.302Z,95603.56
2018-09-19T16:41:58.277Z,95606.28
2018-09-19T16:44:26.587Z,95617.63
2018-09-19T16:46:54.711Z,95615.48
2018-09-19T16:49:22.726Z,95617.41
2018-09-19T16:51:50.715Z,95619.83
2018-09-19T16:54:18.835Z,95616.40
2018-09-19T16:56:47.687Z,95619.77
2018-09-19T16:59:15.716Z,95624.45
2018-09-19T17:01:44.813Z,95634.50
2018-09-19T17:04:12.910Z,95638.45
2018-09-19T17:06:41.036Z,95651.48
2018-09-19T17:09:09.384Z,95661.57
2018-09-19T17:11:37.392Z,95653.83
2018-09-19T17:14:05.849Z,95659.91
2018-09-19T17:16:34.289Z,95658.98
2018-09-19T17:19:02.477Z,95659.98
2018-09-19T17:21:30.418Z,95662.51
2018-09-19T17:23:58.728Z,95667.58
2018-09-19T17:26:26.647Z,95678.52
2018-09-19T17:28:54.840Z,95674.02
2018-09-19T17:31:22.866Z,95680.30
2018-09-19T17:33:50.850Z,95679.91
2018-09-19T17:36:18.922Z,95688.02
2018-09-19T17:38:46.844Z,95697.04
2018-09-19T17:41:14.988Z,95686.42
2018-09-19T17:43:42.937Z,95696.86
2018-09-19T17:46:11.063Z,95695.85
2018-09-19T17:48:42.071Z,95694.84
2018-09-19T17:51:13.142Z,95708.11
2018-09-19T17:53:41.625Z,95707.55
2018-09-19T17:56:09.611Z,95710.91
2018-09-19T17:58:37.899Z,95705.67
2018-09-19T18:01:06.354Z,95711.80
2018-09-19T18:03:34.495Z,95713.44
2018-09-19T18:06:02.522Z,95718.06
2018-09-19T18:08:30.756Z,95714.00
2018-09-19T18:10:58.754Z,95712.83
2018-09-19T18:13:26.695Z,95711.57
2018-09-19T18:15:55.491Z,95714.95
2018-09-19T18:18:23.541Z,95721.73
2018-09-19T18:20:51.775Z,95723.59
2018-09-19T18:23:19.733Z,95729.09
2018-09-19T18:25:47.839Z,95724.58
2018-09-19T18:28:16.243Z,95726.45
2018-09-19T18:30:44.160Z,95725.08
2018-09-19T18:33:12.161Z,95729.33
2018-09-19T18:35:40.202Z,95731.06
2018-09-19T18:38:09.173Z,95733.81
2018-09-19T18:40:38.861Z,95743.91
2018-09-19T18:43:07.077Z,95737.98
2018-09-19T18:45:35.345Z,95733.78
2018-09-19T18:48:03.645Z,95738.65
2018-09-19T18:50:31.997Z,95741.77
2018-09-19T18:52:59.964Z,95739.27
2018-09-19T18:55:28.989Z,95750.36
2018-09-19T18:57:56.959Z,95747.08
2018-09-19T19:00:24.849Z,95745.47
2018-09-19T19:02:53.169Z,95754.36
2018-09-19T19:05:21.580Z,95748.66
2018-09-19T19:07:49.682Z,95745.97
2018-09-19T19:10:18.586Z,95749.79
2018-09-19T19:12:46.743Z,95747.20
2018-09-19T19:15:14.689Z,95747.69
2018-09-19T19:17:42.591Z,95757.88
2018-09-19T19:20:10.656Z,95762.39
2018-09-19T19:22:38.623Z,95751.64
2018-09-19T19:25:06.694Z,95744.75
2018-09-19T19:27:34.749Z,95747.42
2018-09-19T19:30:02.967Z,95756.03
2018-09-19T19:32:31.829Z,95752.56
2018-09-19T19:35:00.290Z,95752.77
2018-09-19T19:37:29.997Z,95752.20
2018-09-19T19:39:58.352Z,95744.50
2018-09-19T19:42:26.359Z,95748.81
2018-09-19T19:44:54.544Z,95743.39
2018-09-19T19:47:41.829Z,95750.15
2018-09-19T19:50:10.180Z,95748.44
2018-09-19T19:52:40.908Z,95753.39
2018-09-19T19:55:10.054Z,95755.14
2018-09-19T19:57:38.274Z,95759.23
2018-09-19T20:00:07.611Z,95753.52
2018-09-19T20:02:37.290Z,95748.58
2018-09-19T20:05:19.216Z,95757.20
2018-09-19T20:07:47.461Z,95757.61
2018-09-19T20:10:15.863Z,95746.50
2018-09-19T20:12:43.957Z,95744.92
2018-09-19T20:15:11.974Z,95755.87
2018-09-19T20:17:40.520Z,95753.89
2018-09-19T20:20:09.952Z,95747.11
2018-09-19T20:22:37.909Z,95752.16
2018-09-19T20:25:05.929Z,95750.79
2018-09-19T20:27:36.853Z,95745.61
2018-09-19T20:30:18.495Z,95748.80
2018-09-19T20:32:46.399Z,95741.30
2018-09-19T20:35:14.422Z,95739.11
2018-09-19T20:37:44.224Z,95741.04
2018-09-19T20:40:12.317Z,95738.71
2018-09-19T20:42:40.151Z,95729.20
2018-09-19T20:45:08.372Z,95736.66
2018-09-19T20:47:36.603Z,95745.17
2018-09-19T20:50:04.578Z,95738.33
2018-09-19T20:52:33.034Z,95747.78
2018-09-19T20:55:00.962Z,95742.44
2018-09-19T20:57:29.034Z,95735.45
2018-09-19T21:00:31.225Z,95745.04
2018-09-19T21:02:59.923Z,95740.52
2018-09-19T21:05:28.156Z,95736.72
2018-09-19T21:07:56.121Z,95728.13
2018-09-19T21:10:24.034Z,95728.72
2018-09-19T21:12:52.049Z,95735.14
2018-09-19T21:15:20.089Z,95725.97
2018-09-19T21:17:48.144Z,95733.00
2018-09-19T21:20:16.335Z,95730.69
2018-09-19T21:22:44.554Z,95728.77
2018-09-19T21:25:12.528Z,95732.91
2018-09-19T21:27:40.405Z,95731.37
2018-09-19T21:30:08.370Z,95731.22
2018-09-19T21:32:36.298Z,95739.94
2018-09-19T21:35:04.468Z,95736.06
2018-09-19T21:37:32.579Z,95734.11
2018-09-19T21:40:00.886Z,95738.91
2018-09-19T21:42:28.802Z,95738.82
2018-09-19T21:44:57.212Z,95736.16
2018-09-19T21:47:25.156Z,95737.53
2018-09-19T21:49:53.787Z,95740.84
2018-09-19T21:52:21.761Z,95740.25
2018-09-19T21:54:49.640Z,95733.03
2018-09-19T21:57:17.606Z,95729.39
2018-09-19T21:59:45.531Z,95727.97
2018-09-19T22:02:16.590Z,95736.12
2018-09-19T22:04:45.560Z,95727.27
2018-09-19T22:07:13.579Z,95731.77
2018-09-19T22:09:41.757Z,95726.60
2018-09-19T22:12:10.888Z,95725.27
2018-09-19T22:14:39.971Z,95729.23
2018-09-19T22:17:07.967Z,95727.63
2018-09-19T22:19:36.226Z,95726.54
2018-09-19T22:22:04.158Z,95720.86
2018-09-19T22:24:32.474Z,95719.28
2018-09-19T22:27:00.644Z,95728.66
2018-09-19T22:29:28.661Z,95716.25
2018-09-19T22:31:56.723Z,95709.20
2018-09-19T22:34:24.898Z,95718.88
2018-09-19T22:36:53.341Z,95716.25
2018-09-19T22:39:21.389Z,95717.04
2018-09-19T22:41:49.979Z,95720.86
2018-09-19T22:44:19.056Z,95711.55
2018-09-19T22:50:08.144Z,95718.64
2018-09-19T22:52:37.225Z,95716.77
2018-09-19T22:55:05.498Z,95722.63
2018-09-19T22:57:33.532Z,95717.41
2018-09-19T23:00:01.446Z,95717.58
2018-09-19T23:02:29.511Z,95719.91
2018-09-19T23:04:58.495Z,95725.58
2018-09-19T23:07:26.478Z,95715.19
2018-09-19T23:09:54.605Z,95715.84
2018-09-19T23:12:22.571Z,95710.19
2018-09-19T23:14:53.301Z,95706.61
2018-09-19T23:17:21.614Z,95707.05
2018-09-19T23:19:53.449Z,95703.06
2018-09-19T23:22:22.776Z,95707.04
2018-09-19T23:24:52.755Z,95700.03
2018-09-19T23:27:21.890Z,95700.20
2018-09-19T23:29:49.946Z,95700.45
2018-09-19T23:32:17.999Z,95693.84
2018-09-19T23:34:46.024Z,95691.44
2018-09-19T23:37:13.984Z,95684.66
2018-09-19T23:39:42.192Z,95693.63
2018-09-19T23:42:10.904Z,95693.76
2018-09-19T23:44:39.059Z,95700.23
2018-09-19T23:47:07.117Z,95700.80
2018-09-19T23:49:35.279Z,95700.66
2018-09-19T23:52:03.621Z,95696.96
2018-09-19T23:54:31.714Z,95697.73
2018-09-19T23:56:59.857Z,95699.43
2018-09-19T23:59:27.869Z,95695.41
